createdAt,value
2022-11-27T00:01:26.746Z,74.17
2022-11-27T00:03:54.167Z,74.05
2022-11-27T00:06:23.024Z,74.15
2022-11-27T00:08:50.273Z,73.37
2022-11-27T00:11:22.180Z,74.31
2022-11-27T00:13:49.860Z,74.01
2022-11-27T00:16:17.476Z,73.80
2022-11-27T00:18:44.669Z,74.39
2022-11-27T00:21:17.595Z,74.46
2022-11-27T00:23:44.918Z,73.87
2022-11-27T00:26:11.983Z,73.53
2022-11-27T00:28:38.793Z,72.85
2022-11-27T00:31:17.363Z,73.01
2022-11-27T00:33:44.898Z,73.29
2022-11-27T00:36:12.979Z,72.58
2022-11-27T00:38:40.343Z,72.95
2022-11-27T00:41:17.323Z,72.80
2022-11-27T00:43:45.306Z,72.85
2022-11-27T00:46:14.231Z,73.45
2022-11-27T00:48:41.400Z,72.86
2022-11-27T00:51:09.936Z,73.31
2022-11-27T00:53:36.777Z,73.33
2022-11-27T00:56:03.739Z,72.40
2022-11-27T00:58:30.667Z,72.91
2022-11-27T01:01:03.925Z,73.37
2022-11-27T01:03:31.511Z,72.89
2022-11-27T01:06:04.227Z,72.59
2022-11-27T01:08:31.709Z,73.12
2022-11-27T01:10:58.791Z,72.73
2022-11-27T01:13:31.067Z,72.95
2022-11-27T01:16:03.686Z,73.73
2022-11-27T01:18:30.545Z,72.70
2022-11-27T01:20:57.235Z,72.75
2022-11-27T01:23:24.262Z,73.45
2022-11-27T01:25:53.305Z,73.96
2022-11-27T01:28:22.140Z,73.58
2022-11-27T01:30:49.439Z,74.46
2022-11-27T01:33:16.454Z,73.52
2022-11-27T01:35:43.177Z,74.49
2022-11-27T01:38:10.886Z,73.41
2022-11-27T01:40:37.592Z,74.22
2022-11-27T01:43:05.962Z,74.33
2022-11-27T01:45:32.670Z,74.12
2022-11-27T01:48:03.084Z,73.75
2022-11-27T01:50:34.186Z,73.95
2022-11-27T01:53:14.018Z,73.74
2022-11-27T01:55:46.954Z,74.33
2022-11-27T01:58:18.266Z,73.67
2022-11-27T02:00:45.025Z,74.18
2022-11-27T02:03:11.771Z,73.76
2022-11-27T02:05:38.619Z,74.66
2022-11-27T02:08:11.899Z,74.25
2022-11-27T02:10:44.286Z,74.13
2022-11-27T02:13:38.596Z,73.94
2022-11-27T02:16:27.146Z,74.57
2022-11-27T02:19:30.453Z,73.87
2022-11-27T02:22:18.605Z,74.05
2022-11-27T02:25:12.395Z,74.14
2022-11-27T02:28:16.568Z,74.67
2022-11-27T02:30:50.137Z,74.12
2022-11-27T02:33:20.469Z,73.81
2022-11-27T02:35:49.863Z,74.79
2022-11-27T02:38:34.780Z,74.20
2022-11-27T02:41:15.500Z,74.44
2022-11-27T02:43:47.637Z,73.67
2022-11-27T02:46:16.528Z,73.87
2022-11-27T02:48:50.674Z,73.81
2022-11-27T02:51:22.990Z,74.77
2022-11-27T02:53:53.851Z,74.74
2022-11-27T02:56:26.334Z,74.94
2022-11-27T02:58:57.217Z,74.88
2022-11-27T03:01:25.374Z,74.87
2022-11-27T03:03:55.670Z,74.22
2022-11-27T03:06:33.573Z,73.32
2022-11-27T03:09:20.907Z,73.70
2022-11-27T03:11:47.843Z,73.34
2022-11-27T03:14:16.061Z,73.83
2022-11-27T03:16:54.680Z,73.23
2022-11-27T03:19:46.020Z,73.32
2022-11-27T03:22:12.962Z,73.40
2022-11-27T03:24:39.910Z,73.66
2022-11-27T03:27:07.177Z,74.14
2022-11-27T03:29:59.241Z,73.67
2022-11-27T03:32:27.505Z,73.57
2022-11-27T03:34:55.135Z,73.67
2022-11-27T03:37:22.793Z,72.84
2022-11-27T03:39:50.119Z,73.35
2022-11-27T03:42:55.237Z,73.33
2022-11-27T03:45:38.391Z,73.06
2022-11-27T03:48:22.920Z,73.14
2022-11-27T03:50:55.351Z,73.12
2022-11-27T03:53:31.291Z,73.46
2022-11-27T03:56:23.267Z,73.49
2022-11-27T03:59:14.557Z,73.34
2022-11-27T04:01:41.831Z,73.08
2022-11-27T04:04:08.759Z,72.83
2022-11-27T04:06:35.610Z,72.67
2022-11-27T04:09:02.358Z,72.93
2022-11-27T04:11:29.105Z,72.88
2022-11-27T04:13:55.731Z,72.70
2022-11-27T04:16:22.582Z,72.42
2022-11-27T04:18:49.342Z,72.33
2022-11-27T04:21:17.011Z,73.03
2022-11-27T04:23:44.301Z,72.78
2022-11-27T04:26:10.976Z,73.18
2022-11-27T04:28:37.974Z,73.00
2022-11-27T04:31:04.968Z,72.27
2022-11-27T04:33:31.776Z,72.35
2022-11-27T04:35:58.489Z,71.79
2022-11-27T04:38:25.138Z,71.32
2022-11-27T04:40:53.466Z,71.68
2022-11-27T04:43:20.602Z,71.04
2022-11-27T04:45:47.283Z,71.12
2022-11-27T04:48:13.965Z,71.57
2022-11-27T04:50:40.767Z,71.47
2022-11-27T04:53:07.420Z,71.98
2022-11-27T04:55:35.531Z,71.36
2022-11-27T04:58:02.231Z,71.31
2022-11-27T05:00:28.998Z,71.96
2022-11-27T05:02:55.777Z,72.15
2022-11-27T05:05:22.530Z,72.39
2022-11-27T05:07:49.305Z,72.57
2022-11-27T05:10:16.057Z,71.58
2022-11-27T05:12:42.752Z,71.88
2022-11-27T05:15:09.729Z,71.66
2022-11-27T05:17:36.453Z,72.29
2022-11-27T05:20:03.631Z,71.84
2022-11-27T05:22:30.299Z,71.49
2022-11-27T05:24:56.965Z,71.84
2022-11-27T05:27:23.652Z,72.03
2022-11-27T05:29:50.466Z,72.38
2022-11-27T05:32:17.219Z,72.75
2022-11-27T05:34:43.889Z,72.30
2022-11-27T05:37:17.869Z,71.91
2022-11-27T05:39:45.869Z,72.17
2022-11-27T05:42:12.480Z,72.19
2022-11-27T05:44:39.483Z,71.84
2022-11-27T05:47:06.321Z,71.54
2022-11-27T05:49:33.103Z,72.33
2022-11-27T05:51:59.766Z,72.58
2022-11-27T05:54:26.566Z,71.62
2022-11-27T05:56:53.206Z,70.32
2022-11-27T05:59:19.937Z,70.53
2022-11-27T06:01:47.061Z,70.58
2022-11-27T06:04:13.765Z,70.88
2022-11-27T06:06:40.444Z,70.79
2022-11-27T06:09:12.451Z,71.82
2022-11-27T06:11:40.456Z,71.80
2022-11-27T06:14:08.907Z,71.10
2022-11-27T06:16:36.226Z,71.29
2022-11-27T06:19:03.535Z,70.98
2022-11-27T06:21:30.299Z,71.10
2022-11-27T06:23:56.967Z,71.31
2022-11-27T06:26:28.824Z,71.94
2022-11-27T06:28:56.832Z,71.58
2022-11-27T06:31:26.309Z,71.62
2022-11-27T06:33:54.492Z,71.57
2022-11-27T06:36:22.593Z,71.62
2022-11-27T06:38:49.295Z,71.91
2022-11-27T06:41:18.474Z,72.21
2022-11-27T06:43:45.379Z,71.84
2022-11-27T06:46:18.178Z,71.66
2022-11-27T06:48:48.793Z,71.78
2022-11-27T06:51:18.181Z,71.76
2022-11-27T06:53:45.371Z,71.33
2022-11-27T06:56:14.431Z,71.07
2022-11-27T06:58:41.897Z,70.75
2022-11-27T07:01:15.041Z,70.83
2022-11-27T07:03:42.101Z,70.82
2022-11-27T07:06:11.302Z,71.63
2022-11-27T07:08:38.496Z,71.62
2022-11-27T07:11:07.707Z,72.11
2022-11-27T07:13:34.697Z,71.38
2022-11-27T07:16:03.969Z,71.57
2022-11-27T07:18:34.146Z,71.59
2022-11-27T07:21:00.847Z,71.02
2022-11-27T07:23:27.526Z,71.28
2022-11-27T07:25:54.150Z,71.84
2022-11-27T07:28:20.784Z,72.20
2022-11-27T07:30:57.271Z,72.31
2022-11-27T07:33:25.213Z,72.41
2022-11-27T07:36:22.906Z,72.92
2022-11-27T07:38:49.940Z,71.93
2022-11-27T07:41:17.164Z,72.25
2022-11-27T07:43:44.963Z,71.82
2022-11-27T07:46:17.617Z,71.61
2022-11-27T07:48:44.462Z,71.04
2022-11-27T07:51:14.708Z,70.89
2022-11-27T07:53:42.090Z,71.04
2022-11-27T07:56:11.172Z,71.34
2022-11-27T07:58:38.153Z,71.63
2022-11-27T08:01:10.071Z,70.92
2022-11-27T08:03:37.097Z,70.97
2022-11-27T08:06:04.759Z,71.24
2022-11-27T08:08:32.311Z,71.29
2022-11-27T08:10:58.956Z,71.89
2022-11-27T08:13:25.595Z,71.66
2022-11-27T08:15:52.206Z,71.77
2022-11-27T08:18:18.887Z,71.83
2022-11-27T08:20:45.554Z,71.71
2022-11-27T08:23:12.265Z,72.09
2022-11-27T08:25:38.931Z,71.58
2022-11-27T08:28:05.631Z,72.01
2022-11-27T08:30:32.312Z,70.89
2022-11-27T08:32:59.016Z,70.85
2022-11-27T08:35:25.764Z,71.46
2022-11-27T08:37:52.591Z,70.42
2022-11-27T08:40:19.433Z,70.47
2022-11-27T08:42:46.105Z,70.42
2022-11-27T08:45:12.852Z,70.38
2022-11-27T08:47:39.563Z,69.34
2022-11-27T08:50:07.088Z,69.92
2022-11-27T08:52:33.777Z,70.12
2022-11-27T08:55:00.469Z,69.84
2022-11-27T08:57:27.409Z,69.86
2022-11-27T08:59:54.057Z,69.53
2022-11-27T09:02:20.709Z,68.36
2022-11-27T09:04:47.354Z,68.46
2022-11-27T09:07:15.848Z,69.16
2022-11-27T09:09:42.865Z,69.62
2022-11-27T09:12:09.850Z,68.90
2022-11-27T09:14:36.572Z,68.89
2022-11-27T09:17:03.615Z,68.75
2022-11-27T09:19:30.442Z,68.71
2022-11-27T09:21:57.175Z,68.32
2022-11-27T09:24:24.860Z,68.16
2022-11-27T09:26:51.605Z,68.29
2022-11-27T09:29:18.271Z,68.51
2022-11-27T09:31:45.037Z,69.10
2022-11-27T09:34:11.755Z,68.64
2022-11-27T09:36:38.405Z,69.37
2022-11-27T09:39:05.125Z,69.05
2022-11-27T09:41:41.043Z,69.07
2022-11-27T09:44:30.795Z,69.31
2022-11-27T09:47:02.357Z,69.06
2022-11-27T09:49:48.039Z,68.93
2022-11-27T09:52:18.134Z,68.59
2022-11-27T09:54:55.496Z,68.38
2022-11-27T09:57:36.288Z,67.95
2022-11-27T10:00:15.013Z,67.44
2022-11-27T10:02:45.673Z,66.96
2022-11-27T10:05:22.044Z,66.76
2022-11-27T10:08:03.253Z,66.21
2022-11-27T10:10:51.017Z,65.77
2022-11-27T10:13:39.285Z,65.92
2022-11-27T10:16:29.027Z,65.51
2022-11-27T10:19:04.948Z,65.26
2022-11-27T10:21:36.535Z,65.01
2022-11-27T10:24:03.195Z,65.66
2022-11-27T10:26:44.333Z,66.33
2022-11-27T10:29:36.251Z,66.11
2022-11-27T10:32:46.898Z,65.46
2022-11-27T10:35:10.040Z,64.95
2022-11-27T10:37:48.548Z,65.36
2022-11-27T10:40:15.227Z,65.70
2022-11-27T10:43:08.017Z,65.62
2022-11-27T10:45:48.592Z,65.27
2022-11-27T10:48:15.919Z,63.87
2022-11-27T10:50:43.486Z,64.23
2022-11-27T10:53:27.234Z,64.44
2022-11-27T10:56:06.130Z,64.18
2022-11-27T10:58:55.548Z,63.70
2022-11-27T11:01:24.505Z,62.91
2022-11-27T11:03:51.608Z,63.29
2022-11-27T11:06:26.683Z,62.74
2022-11-27T11:09:21.119Z,62.67
2022-11-27T11:11:48.697Z,62.19
2022-11-27T11:14:19.151Z,61.37
2022-11-27T11:16:46.962Z,61.49
2022-11-27T11:19:35.575Z,61.54
2022-11-27T11:22:21.099Z,60.79
2022-11-27T11:24:55.029Z,59.72
2022-11-27T11:27:32.194Z,58.80
2022-11-27T11:30:05.934Z,58.17
2022-11-27T11:32:37.283Z,58.86
2022-11-27T11:35:09.532Z,59.49
2022-11-27T11:37:41.056Z,59.43
2022-11-27T11:40:16.159Z,59.23
2022-11-27T11:43:41.835Z,59.58
2022-11-27T11:46:17.438Z,59.35
2022-11-27T11:49:00.010Z,58.67
2022-11-27T11:51:42.101Z,58.01
2022-11-27T11:54:23.541Z,56.31
2022-11-27T11:56:52.625Z,55.19
2022-11-27T11:59:50.416Z,53.94
2022-11-27T12:02:35.506Z,53.23
2022-11-27T12:05:29.773Z,51.85
2022-11-27T12:08:23.705Z,52.17
2022-11-27T12:11:03.332Z,53.04
2022-11-27T12:13:58.440Z,52.91
2022-11-27T12:17:01.881Z,52.77
2022-11-27T12:19:40.412Z,53.88
2022-11-27T12:22:37.166Z,54.04
2022-11-27T12:25:17.563Z,53.63
2022-11-27T12:28:06.322Z,53.71
2022-11-27T12:30:56.172Z,53.74
2022-11-27T12:33:56.145Z,53.95
2022-11-27T12:36:42.761Z,54.81
2022-11-27T12:39:31.581Z,55.09
2022-11-27T12:42:12.327Z,55.94
2022-11-27T12:44:55.125Z,56.45
2022-11-27T12:47:44.026Z,55.63
2022-11-27T12:50:43.157Z,55.91
2022-11-27T12:53:24.550Z,55.04
2022-11-27T12:56:24.795Z,55.75
2022-11-27T12:58:57.143Z,56.54
2022-11-27T13:01:39.688Z,56.74
2022-11-27T13:04:26.004Z,56.58
2022-11-27T13:06:58.684Z,56.17
2022-11-27T13:09:59.352Z,56.53
2022-11-27T13:12:37.668Z,57.32
2022-11-27T13:15:21.608Z,56.49
2022-11-27T13:17:56.559Z,55.99
2022-11-27T13:20:32.743Z,55.63
2022-11-27T13:22:59.496Z,55.01
2022-11-27T13:25:27.739Z,55.04
2022-11-27T13:27:56.073Z,54.89
2022-11-27T13:30:26.114Z,54.94
2022-11-27T13:33:01.869Z,54.51
2022-11-27T13:35:36.879Z,54.71
2022-11-27T13:38:14.354Z,55.04
2022-11-27T13:40:43.906Z,55.99
2022-11-27T13:43:28.781Z,56.27
2022-11-27T13:46:07.813Z,56.89
2022-11-27T13:48:36.703Z,57.76
2022-11-27T13:51:05.954Z,58.30
2022-11-27T13:53:36.567Z,58.89
2022-11-27T13:56:04.984Z,58.99
2022-11-27T13:58:34.132Z,59.42
2022-11-27T14:01:17.248Z,59.05
2022-11-27T14:03:44.633Z,59.07
2022-11-27T14:06:18.460Z,59.28
2022-11-27T14:08:57.789Z,58.58
2022-11-27T14:11:40.104Z,59.39
2022-11-27T14:14:21.168Z,59.24
2022-11-27T14:16:57.685Z,59.34
2022-11-27T14:19:34.624Z,59.42
2022-11-27T14:22:14.253Z,59.36
2022-11-27T14:24:45.657Z,59.90
2022-11-27T14:27:21.061Z,59.86
2022-11-27T14:29:48.500Z,59.77
2022-11-27T14:32:16.566Z,59.90
2022-11-27T14:34:43.957Z,59.90
2022-11-27T14:37:26.056Z,60.14
2022-11-27T14:39:53.404Z,60.36
2022-11-27T14:42:28.979Z,60.31
2022-11-27T14:45:07.591Z,59.66
2022-11-27T14:47:35.219Z,59.72
2022-11-27T14:50:03.538Z,59.87
2022-11-27T14:52:30.768Z,59.97
2022-11-27T14:54:58.070Z,59.99
2022-11-27T14:57:27.487Z,59.73
2022-11-27T15:00:16.436Z,59.89
2022-11-27T15:02:43.560Z,60.36
2022-11-27T15:05:38.526Z,60.30
2022-11-27T15:08:09.537Z,60.08
2022-11-27T15:10:41.199Z,59.91
2022-11-27T15:13:21.268Z,60.15
2022-11-27T15:15:56.092Z,60.04
2022-11-27T15:18:24.925Z,59.55
2022-11-27T15:20:52.238Z,59.88
2022-11-27T15:23:26.343Z,59.67
2022-11-27T15:26:02.089Z,59.60
2022-11-27T15:28:35.257Z,59.56
2022-11-27T15:31:22.039Z,59.49
2022-11-27T15:34:17.838Z,59.76
2022-11-27T15:36:48.660Z,60.63
2022-11-27T15:39:17.959Z,60.62
2022-11-27T15:42:00.107Z,60.98
2022-11-27T15:44:30.826Z,61.01
2022-11-27T15:47:00.596Z,60.40
2022-11-27T15:49:27.566Z,60.79
2022-11-27T15:51:56.075Z,60.55
2022-11-27T15:54:23.723Z,60.59
2022-11-27T15:56:50.796Z,61.39
2022-11-27T15:59:20.471Z,61.97
2022-11-27T16:01:47.689Z,62.06
2022-11-27T16:04:14.366Z,61.71
2022-11-27T16:06:41.129Z,61.27
2022-11-27T16:09:07.805Z,60.84
2022-11-27T16:11:34.552Z,60.13
2022-11-27T16:14:01.908Z,60.25
2022-11-27T16:16:28.913Z,60.26
2022-11-27T16:19:00.670Z,60.55
2022-11-27T16:21:30.065Z,60.57
2022-11-27T16:24:03.328Z,60.22
2022-11-27T16:26:30.722Z,60.31
2022-11-27T16:28:57.651Z,59.89
2022-11-27T16:31:25.912Z,59.71
2022-11-27T16:33:53.013Z,60.22
2022-11-27T16:36:22.823Z,59.90
2022-11-27T16:38:52.804Z,60.04
2022-11-27T16:41:20.189Z,59.73
2022-11-27T16:43:50.162Z,60.19
2022-11-27T16:46:26.311Z,60.33
2022-11-27T16:48:54.643Z,60.82
2022-11-27T16:51:24.757Z,60.73
2022-11-27T16:53:55.734Z,60.85
2022-11-27T16:56:25.374Z,60.66
2022-11-27T16:58:57.971Z,60.35
2022-11-27T17:01:34.641Z,60.82
2022-11-27T17:04:04.638Z,60.67
2022-11-27T17:06:32.689Z,61.47
2022-11-27T17:09:01.911Z,61.12
2022-11-27T17:11:32.874Z,60.78
2022-11-27T17:14:02.479Z,60.45
2022-11-27T17:16:29.484Z,60.81
2022-11-27T17:18:58.274Z,61.29
2022-11-27T17:21:28.664Z,61.82
2022-11-27T17:23:57.005Z,61.69
2022-11-27T17:26:25.805Z,61.47
2022-11-27T17:28:56.114Z,61.13
2022-11-27T17:31:33.492Z,61.08
2022-11-27T17:34:02.054Z,60.84
2022-11-27T17:36:35.214Z,60.97
2022-11-27T17:39:05.921Z,61.23
2022-11-27T17:41:33.630Z,61.22
2022-11-27T17:44:00.515Z,60.63
2022-11-27T17:46:28.893Z,60.81
2022-11-27T17:48:59.004Z,60.67
2022-11-27T17:51:27.405Z,61.01
2022-11-27T17:53:54.156Z,60.93
2022-11-27T17:56:22.312Z,60.69
2022-11-27T17:58:49.174Z,60.68
2022-11-27T18:01:19.168Z,60.99
2022-11-27T18:03:46.872Z,61.01
2022-11-27T18:06:16.827Z,60.91
2022-11-27T18:08:44.768Z,60.98
2022-11-27T18:11:17.984Z,61.09
2022-11-27T18:13:46.052Z,61.20
2022-11-27T18:16:18.955Z,61.07
2022-11-27T18:18:45.758Z,61.31
2022-11-27T18:21:18.501Z,61.62
2022-11-27T18:24:20.803Z,61.83
2022-11-27T18:27:00.537Z,61.64
2022-11-27T18:29:21.603Z,61.78
2022-11-27T18:31:49.955Z,62.15
2022-11-27T18:34:16.668Z,61.95
2022-11-27T18:36:43.405Z,62.05
2022-11-27T18:39:10.457Z,62.08
2022-11-27T18:41:37.512Z,62.07
2022-11-27T18:44:04.596Z,62.24
2022-11-27T18:46:31.502Z,62.06
2022-11-27T18:48:59.073Z,62.09
2022-11-27T18:51:26.562Z,62.46
2022-11-27T18:53:54.319Z,62.66
2022-11-27T18:56:27.566Z,62.74
2022-11-27T18:58:54.612Z,62.76
2022-11-27T19:01:24.312Z,62.79
2022-11-27T19:03:52.369Z,62.47
2022-11-27T19:06:20.851Z,62.25
2022-11-27T19:08:48.599Z,62.62
2022-11-27T19:11:17.984Z,62.47
2022-11-27T19:13:46.624Z,62.49
2022-11-27T19:16:25.734Z,62.40
2022-11-27T19:18:53.332Z,62.66
2022-11-27T19:21:22.758Z,62.88
2022-11-27T19:23:50.659Z,62.96
2022-11-27T19:26:19.885Z,63.26
2022-11-27T19:28:49.469Z,63.03
2022-11-27T19:31:16.450Z,63.44
2022-11-27T19:33:43.655Z,63.16
2022-11-27T19:36:12.954Z,63.35
2022-11-27T19:38:42.220Z,63.27
2022-11-27T19:41:14.847Z,63.10
2022-11-27T19:43:41.898Z,63.08
2022-11-27T19:46:25.765Z,63.14
2022-11-27T19:48:57.845Z,63.20
2022-11-27T19:51:26.563Z,62.87
2022-11-27T19:53:53.547Z,62.90
2022-11-27T19:56:20.654Z,62.76
2022-11-27T19:58:47.432Z,62.73
2022-11-27T20:01:18.116Z,62.70
2022-11-27T20:03:47.195Z,62.26
2022-11-27T20:06:18.225Z,62.51
2022-11-27T20:08:47.195Z,62.62
2022-11-27T20:11:17.363Z,62.67
2022-11-27T20:13:44.091Z,62.63
2022-11-27T20:16:16.726Z,62.33
2022-11-27T20:18:44.200Z,62.39
2022-11-27T20:21:17.013Z,62.37
2022-11-27T20:23:47.275Z,62.20
2022-11-27T20:26:17.431Z,61.96
2022-11-27T20:28:44.606Z,61.95
2022-11-27T20:31:14.751Z,61.92
2022-11-27T20:33:41.567Z,61.79
2022-11-27T20:36:13.531Z,61.73
2022-11-27T20:38:40.553Z,61.67
2022-11-27T20:41:13.665Z,61.65
2022-11-27T20:43:41.472Z,61.47
2022-11-27T20:46:08.700Z,61.50
2022-11-27T20:48:35.876Z,61.28
2022-11-27T20:51:08.489Z,61.21
2022-11-27T20:53:36.075Z,61.19
2022-11-27T20:56:04.376Z,61.13
2022-11-27T20:58:33.872Z,61.43
2022-11-27T21:01:00.699Z,61.24
2022-11-27T21:03:29.477Z,60.93
2022-11-27T21:05:56.545Z,60.66
2022-11-27T21:08:23.213Z,60.79
2022-11-27T21:10:50.533Z,61.09
2022-11-27T21:13:17.683Z,61.24
2022-11-27T21:15:46.417Z,61.36
2022-11-27T21:18:13.566Z,61.26
2022-11-27T21:20:41.145Z,61.25
2022-11-27T21:23:08.244Z,61.32
2022-11-27T21:25:35.008Z,61.31
2022-11-27T21:28:02.060Z,61.35
2022-11-27T21:30:28.780Z,61.27
2022-11-27T21:32:55.630Z,61.50
2022-11-27T21:35:23.403Z,61.38
2022-11-27T21:37:52.131Z,61.46
2022-11-27T21:40:18.912Z,61.42
2022-11-27T21:42:45.616Z,61.18
2022-11-27T21:45:13.143Z,61.25
2022-11-27T21:47:39.946Z,61.25
2022-11-27T21:50:07.469Z,61.14
2022-11-27T21:52:35.643Z,61.27
2022-11-27T21:55:02.378Z,61.05
2022-11-27T21:57:29.090Z,61.31
2022-11-27T21:59:56.275Z,61.35
2022-11-27T22:02:23.003Z,61.50
2022-11-27T22:04:49.819Z,61.34
2022-11-27T22:07:16.730Z,61.47
2022-11-27T22:09:43.506Z,61.37
2022-11-27T22:12:10.119Z,61.04
2022-11-27T22:14:36.864Z,60.81
2022-11-27T22:17:04.309Z,60.83
2022-11-27T22:19:31.034Z,60.59
2022-11-27T22:21:57.688Z,60.94
2022-11-27T22:24:24.357Z,60.70
2022-11-27T22:26:52.310Z,60.74
2022-11-27T22:29:19.426Z,61.07
2022-11-27T22:31:46.433Z,60.84
2022-11-27T22:34:15.859Z,61.06
2022-11-27T22:36:42.616Z,61.05
2022-11-27T22:39:09.775Z,60.96
2022-11-27T22:41:39.056Z,60.76
2022-11-27T22:44:12.550Z,60.62
2022-11-27T22:46:41.088Z,60.57
2022-11-27T22:49:09.708Z,60.81
2022-11-27T22:51:37.759Z,60.92
2022-11-27T22:54:07.575Z,60.81
2022-11-27T22:56:34.520Z,60.71
2022-11-27T22:59:30.492Z,60.79
2022-11-27T23:01:48.609Z,60.87
2022-11-27T23:04:16.389Z,60.78
2022-11-27T23:06:47.816Z,60.79
2022-11-27T23:09:16.124Z,60.68
2022-11-27T23:11:42.842Z,60.67
2022-11-27T23:14:09.571Z,60.52
2022-11-27T23:16:36.361Z,60.46
2022-11-27T23:19:03.093Z,60.66
2022-11-27T23:21:30.513Z,60.58
2022-11-27T23:23:57.161Z,60.62
2022-11-27T23:26:24.428Z,60.11
2022-11-27T23:28:53.357Z,60.36
2022-11-27T23:31:30.931Z,60.52
2022-11-27T23:33:59.194Z,60.41
2022-11-27T23:36:25.928Z,60.09
2022-11-27T23:38:52.625Z,59.84
2022-11-27T23:41:22.554Z,59.33
2022-11-27T23:43:50.144Z,59.26
2022-11-27T23:46:19.300Z,59.83
2022-11-27T23:48:46.323Z,60.53
2022-11-27T23:51:18.899Z,60.68
2022-11-27T23:53:46.623Z,60.64
2022-11-27T23:56:16.011Z,61.14
2022-11-27T23:58:47.008Z,61.04
